sensor_id;sensor_type;location;lat;lon;timestamp;pressure;altitude;pressure_sealevel;temperature;humidity
74573;BME280;63071;51.526;-0.134;2022-10-12T00:00:52;102000.56;;;24.05;31.79
74573;BME280;63071;51.526;-0.134;2022-10-12T00:03:18;101994.00;;;24.02;31.88
74573;BME280;63071;51.526;-0.134;2022-10-12T00:05:45;102002.44;;;24.04;32.19
74573;BME280;63071;51.526;-0.134;2022-10-12T00:08:11;101994.00;;;24.02;31.70
74573;BME280;63071;51.526;-0.134;2022-10-12T00:10:41;101989.88;;;24.05;31.77
74573;BME280;63071;51.526;-0.134;2022-10-12T00:13:08;101976.03;;;23.99;31.84
74573;BME280;63071;51.526;-0.134;2022-10-12T00:15:38;101986.44;;;24.04;31.96
74573;BME280;63071;51.526;-0.134;2022-10-12T00:18:04;101985.31;;;24.05;31.87
74573;BME280;63071;51.526;-0.134;2022-10-12T00:20:30;101984.88;;;24.03;31.71
74573;BME280;63071;51.526;-0.134;2022-10-12T00:22:56;101979.88;;;24.02;31.74
74573;BME280;63071;51.526;-0.134;2022-10-12T00:25:21;101998.31;;;24.07;31.81
74573;BME280;63071;51.526;-0.134;2022-10-12T00:27:46;101991.44;;;24.06;32.06
74573;BME280;63071;51.526;-0.134;2022-10-12T00:30:12;101989.44;;;24.03;31.63
74573;BME280;63071;51.526;-0.134;2022-10-12T00:32:38;101991.44;;;24.06;32.19
74573;BME280;63071;51.526;-0.134;2022-10-12T00:35:04;101997.88;;;24.05;31.82
74573;BME280;63071;51.526;-0.134;2022-10-12T00:37:29;101987.91;;;24.02;31.88
74573;BME280;63071;51.526;-0.134;2022-10-12T00:39:54;101989.44;;;24.03;31.89
74573;BME280;63071;51.526;-0.134;2022-10-12T00:42:20;101971.34;;;23.96;31.90
74573;BME280;63071;51.526;-0.134;2022-10-12T00:44:48;101986.00;;;24.02;32.08
74573;BME280;63071;51.526;-0.134;2022-10-12T00:47:24;101976.09;;;24.03;31.97
74573;BME280;63071;51.526;-0.134;2022-10-12T00:49:58;101984.88;;;24.03;31.78
74573;BME280;63071;51.526;-0.134;2022-10-12T00:52:32;101982.91;;;24.00;31.71
74573;BME280;63071;51.526;-0.134;2022-10-12T00:55:00;101982.91;;;24.00;31.65
74573;BME280;63071;51.526;-0.134;2022-10-12T00:57:27;101986.00;;;24.02;31.81
74573;BME280;63071;51.526;-0.134;2022-10-12T01:00:07;101973.34;;;23.99;31.79
74573;BME280;63071;51.526;-0.134;2022-10-12T01:02:35;101976.34;;;23.97;31.89
74573;BME280;63071;51.526;-0.134;2022-10-12T01:05:03;101975.31;;;24.02;31.83
74573;BME280;63071;51.526;-0.134;2022-10-12T01:07:29;101970.59;;;23.95;31.90
74573;BME280;63071;51.526;-0.134;2022-10-12T01:09:55;101969.22;;;24.02;31.59
74573;BME280;63071;51.526;-0.134;2022-10-12T01:12:22;101963.09;;;24.01;31.82
74573;BME280;63071;51.526;-0.134;2022-10-12T01:14:48;101972.97;;;24.00;31.82
74573;BME280;63071;51.526;-0.134;2022-10-12T01:20:24;101962.66;;;23.99;31.75
74573;BME280;63071;51.526;-0.134;2022-10-12T01:31:37;101958.88;;;24.00;31.93
74573;BME280;63071;51.526;-0.134;2022-10-12T01:34:45;101955.75;;;23.98;31.87
74573;BME280;63071;51.526;-0.134;2022-10-12T01:37:22;101954.66;;;23.99;31.73
74573;BME280;63071;51.526;-0.134;2022-10-12T01:39:54;101955.00;;;23.97;31.58
74573;BME280;63071;51.526;-0.134;2022-10-12T01:42:30;101954.22;;;23.97;31.82
74573;BME280;63071;51.526;-0.134;2022-10-12T01:45:05;101948.78;;;23.93;31.72
74573;BME280;63071;51.526;-0.134;2022-10-12T01:47:32;101951.13;;;23.95;31.63
74573;BME280;63071;51.526;-0.134;2022-10-12T01:50:02;101954.03;;;23.90;31.81
74573;BME280;63071;51.526;-0.134;2022-10-12T01:52:29;101954.13;;;23.93;31.75
74573;BME280;63071;51.526;-0.134;2022-10-12T01:55:07;101943.47;;;23.93;31.49
74573;BME280;63071;51.526;-0.134;2022-10-12T02:00:40;101946.81;;;23.90;31.67
74573;BME280;63071;51.526;-0.134;2022-10-12T02:03:20;101954.03;;;23.90;31.63
74573;BME280;63071;51.526;-0.134;2022-10-12T02:05:59;101935.63;;;23.85;31.67
74573;BME280;63071;51.526;-0.134;2022-10-12T02:11:18;101940.59;;;23.86;31.71
74573;BME280;63071;51.526;-0.134;2022-10-12T02:13:50;101938.72;;;23.87;31.69
74573;BME280;63071;51.526;-0.134;2022-10-12T02:16:19;101945.19;;;23.86;31.72
74573;BME280;63071;51.526;-0.134;2022-10-12T02:18:51;101933.72;;;23.85;31.68
74573;BME280;63071;51.526;-0.134;2022-10-12T02:21:30;101934.50;;;23.86;31.71
74573;BME280;63071;51.526;-0.134;2022-10-12T02:24:00;101927.19;;;23.83;31.35
74573;BME280;63071;51.526;-0.134;2022-10-12T02:26:31;101928.72;;;23.84;31.36
74573;BME280;63071;51.526;-0.134;2022-10-12T02:29:01;101916.09;;;23.81;31.46
74573;BME280;63071;51.526;-0.134;2022-10-12T02:31:41;101926.81;;;23.84;31.54
74573;BME280;63071;51.526;-0.134;2022-10-12T02:39:29;101913.75;;;23.79;31.94
74573;BME280;63071;51.526;-0.134;2022-10-12T02:42:06;101907.19;;;23.76;31.62
74573;BME280;63071;51.526;-0.134;2022-10-12T02:44:37;101898.75;;;23.74;31.61
74573;BME280;63071;51.526;-0.134;2022-10-12T02:47:07;101912.63;;;23.80;31.52
74573;BME280;63071;51.526;-0.134;2022-10-12T02:49:35;101913.00;;;23.78;31.58
74573;BME280;63071;51.526;-0.134;2022-10-12T02:52:05;101914.09;;;23.77;31.53
74573;BME280;63071;51.526;-0.134;2022-10-12T02:54:31;101906.41;;;23.76;31.53
74573;BME280;63071;51.526;-0.134;2022-10-12T02:56:56;101913.31;;;23.77;31.44
74573;BME280;63071;51.526;-0.134;2022-10-12T02:59:22;101909.06;;;23.76;31.34
74573;BME280;63071;51.526;-0.134;2022-10-12T03:01:47;101904.84;;;23.75;31.47
74573;BME280;63071;51.526;-0.134;2022-10-12T03:04:13;101907.53;;;23.75;31.56
74573;BME280;63071;51.526;-0.134;2022-10-12T03:06:38;101903.28;;;23.74;31.41
74573;BME280;63071;51.526;-0.134;2022-10-12T03:09:04;101889.03;;;23.66;31.68
74573;BME280;63071;51.526;-0.134;2022-10-12T03:11:30;101901.00;;;23.72;31.47
74573;BME280;63071;51.526;-0.134;2022-10-12T03:13:56;101897.47;;;23.68;31.46
74573;BME280;63071;51.526;-0.134;2022-10-12T03:16:23;101898.66;;;23.71;31.46
74573;BME280;63071;51.526;-0.134;2022-10-12T03:18:49;101888.75;;;23.71;31.53
74573;BME280;63071;51.526;-0.134;2022-10-12T03:21:15;101894.78;;;23.68;31.67
74573;BME280;63071;51.526;-0.134;2022-10-12T03:23:40;101884.47;;;23.67;31.48
74573;BME280;63071;51.526;-0.134;2022-10-12T03:26:06;101886.00;;;23.68;31.50
74573;BME280;63071;51.526;-0.134;2022-10-12T03:28:32;101878.69;;;23.65;31.25
74573;BME280;63071;51.526;-0.134;2022-10-12T03:30:58;101883.75;;;23.70;31.49
74573;BME280;63071;51.526;-0.134;2022-10-12T03:33:24;101880.31;;;23.69;31.46
74573;BME280;63071;51.526;-0.134;2022-10-12T03:35:50;101869.97;;;23.68;31.38
74573;BME280;63071;51.526;-0.134;2022-10-12T03:38:16;101874.88;;;23.66;31.42
74573;BME280;63071;51.526;-0.134;2022-10-12T03:40:42;101874.22;;;23.69;31.46
74573;BME280;63071;51.526;-0.134;2022-10-12T03:43:08;101874.22;;;23.69;31.47
74573;BME280;63071;51.526;-0.134;2022-10-12T03:45:35;101877.22;;;23.67;31.36
74573;BME280;63071;51.526;-0.134;2022-10-12T03:48:01;101868.44;;;23.67;31.72
74573;BME280;63071;51.526;-0.134;2022-10-12T03:50:27;101857.69;;;23.63;31.29
74573;BME280;63071;51.526;-0.134;2022-10-12T03:52:52;101856.19;;;23.66;31.36
74573;BME280;63071;51.526;-0.134;2022-10-12T03:55:18;101862.69;;;23.65;31.80
74573;BME280;63071;51.526;-0.134;2022-10-12T03:57:43;101861.53;;;23.66;31.56
74573;BME280;63071;51.526;-0.134;2022-10-12T04:02:35;101857.44;;;23.68;31.40
74573;BME280;63071;51.526;-0.134;2022-10-12T04:05:01;101858.53;;;23.67;31.65
74573;BME280;63071;51.526;-0.134;2022-10-12T04:07:27;101850.09;;;23.65;31.54
74573;BME280;63071;51.526;-0.134;2022-10-12T04:09:52;101852.00;;;23.65;31.92
74573;BME280;63071;51.526;-0.134;2022-10-12T04:12:18;101849.75;;;23.67;31.76
74573;BME280;63071;51.526;-0.134;2022-10-12T04:14:43;101852.00;;;23.65;31.72
74573;BME280;63071;51.526;-0.134;2022-10-12T04:17:09;101854.34;;;23.66;31.48
74573;BME280;63071;51.526;-0.134;2022-10-12T04:19:34;101851.66;;;23.66;31.65
74573;BME280;63071;51.526;-0.134;2022-10-12T04:22:00;101843.66;;;23.66;31.43
74573;BME280;63071;51.526;-0.134;2022-10-12T04:24:25;101838.31;;;23.66;31.77
74573;BME280;63071;51.526;-0.134;2022-10-12T04:26:50;101828.41;;;23.67;31.67
74573;BME280;63071;51.526;-0.134;2022-10-12T04:29:16;101821.94;;;23.68;31.67
74573;BME280;63071;51.526;-0.134;2022-10-12T04:31:41;101816.59;;;23.68;31.70
74573;BME280;63071;51.526;-0.134;2022-10-12T04:34:10;101811.63;;;23.66;31.74
74573;BME280;63071;51.526;-0.134;2022-10-12T04:36:35;101818.50;;;23.67;31.69
74573;BME280;63071;51.526;-0.134;2022-10-12T04:39:01;101805.50;;;23.66;31.45
74573;BME280;63071;51.526;-0.134;2022-10-12T04:41:27;101805.91;;;23.68;31.62
74573;BME280;63071;51.526;-0.134;2022-10-12T04:43:52;101812.38;;;23.67;31.82
74573;BME280;63071;51.526;-0.134;2022-10-12T04:46:18;101800.94;;;23.66;31.75
74573;BME280;63071;51.526;-0.134;2022-10-12T04:48:43;101821.94;;;23.68;32.14
74573;BME280;63071;51.526;-0.134;2022-10-12T04:51:09;101811.25;;;23.68;31.83
74573;BME280;63071;51.526;-0.134;2022-10-12T04:53:34;101807.13;;;23.70;31.75
74573;BME280;63071;51.526;-0.134;2022-10-12T04:56:04;101804.03;;;23.68;31.92
74573;BME280;63071;51.526;-0.134;2022-10-12T04:58:30;101800.94;;;23.66;31.68
74573;BME280;63071;51.526;-0.134;2022-10-12T05:00:56;101802.47;;;23.67;31.59
74573;BME280;63071;51.526;-0.134;2022-10-12T05:03:21;101807.81;;;23.67;31.74
74573;BME280;63071;51.526;-0.134;2022-10-12T05:05:47;101811.63;;;23.66;31.76
74573;BME280;63071;51.526;-0.134;2022-10-12T05:08:12;101813.16;;;23.67;31.68
74573;BME280;63071;51.526;-0.134;2022-10-12T05:10:39;101808.16;;;23.66;31.83
74573;BME280;63071;51.526;-0.134;2022-10-12T05:13:05;101813.16;;;23.67;31.66
74573;BME280;63071;51.526;-0.134;2022-10-12T05:15:31;101813.94;;;23.68;32.04
74573;BME280;63071;51.526;-0.134;2022-10-12T05:17:57;101815.41;;;23.65;31.59
74573;BME280;63071;51.526;-0.134;2022-10-12T05:20:23;101818.84;;;23.66;32.17
74573;BME280;63071;51.526;-0.134;2022-10-12T05:22:48;101818.06;;;23.65;31.73
74573;BME280;63071;51.526;-0.134;2022-10-12T05:25:14;101815.41;;;23.65;31.61
74573;BME280;63071;51.526;-0.134;2022-10-12T05:27:40;101816.97;;;23.66;31.85
74573;BME280;63071;51.526;-0.134;2022-10-12T05:30:06;101814.28;;;23.66;31.79
74573;BME280;63071;51.526;-0.134;2022-10-12T05:32:32;101803.97;;;23.65;32.15
74573;BME280;63071;51.526;-0.134;2022-10-12T05:34:57;101789.75;;;23.60;31.87
74573;BME280;63071;51.526;-0.134;2022-10-12T05:37:22;101802.16;;;23.69;31.59
74573;BME280;63071;51.526;-0.134;2022-10-12T05:39:48;101793.72;;;23.67;31.97
74573;BME280;63071;51.526;-0.134;2022-10-12T05:42:16;101794.91;;;23.69;31.43
74573;BME280;63071;51.526;-0.134;2022-10-12T05:44:42;101799.47;;;23.69;31.79
74573;BME280;63071;51.526;-0.134;2022-10-12T05:47:07;101791.13;;;23.70;31.94
74573;BME280;63071;51.526;-0.134;2022-10-12T05:49:33;101788.47;;;23.70;31.74
74573;BME280;63071;51.526;-0.134;2022-10-12T05:51:58;101793.41;;;23.72;31.90
74573;BME280;63071;51.526;-0.134;2022-10-12T05:54:24;101792.22;;;23.69;31.94
74573;BME280;63071;51.526;-0.134;2022-10-12T05:56:50;101786.22;;;23.72;31.69
74573;BME280;63071;51.526;-0.134;2022-10-12T05:59:15;101785.06;;;23.73;31.85
74573;BME280;63071;51.526;-0.134;2022-10-12T06:01:41;101796.53;;;23.74;32.02
74573;BME280;63071;51.526;-0.134;2022-10-12T06:04:06;101789.66;;;23.73;32.12
74573;BME280;63071;51.526;-0.134;2022-10-12T06:06:32;101794.22;;;23.72;31.98
74573;BME280;63071;51.526;-0.134;2022-10-12T06:08:57;101786.38;;;23.64;32.34
74573;BME280;63071;51.526;-0.134;2022-10-12T06:11:22;101787.31;;;23.71;31.92
74573;BME280;63071;51.526;-0.134;2022-10-12T06:13:48;101777.34;;;23.68;31.86
74573;BME280;63071;51.526;-0.134;2022-10-12T06:16:13;101785.78;;;23.70;32.04
74573;BME280;63071;51.526;-0.134;2022-10-12T06:18:39;101788.78;;;23.69;31.99
74573;BME280;63071;51.526;-0.134;2022-10-12T06:21:04;101789.56;;;23.69;31.96
74573;BME280;63071;51.526;-0.134;2022-10-12T06:23:30;101778.13;;;23.69;32.15
74573;BME280;63071;51.526;-0.134;2022-10-12T06:25:55;101780.78;;;23.69;31.73
74573;BME280;63071;51.526;-0.134;2022-10-12T06:28:21;101784.66;;;23.71;32.10
74573;BME280;63071;51.526;-0.134;2022-10-12T06:30:58;101778.19;;;23.72;31.96
74573;BME280;63071;51.526;-0.134;2022-10-12T06:33:25;101785.41;;;23.72;31.90
74573;BME280;63071;51.526;-0.134;2022-10-12T06:35:51;101786.97;;;23.73;32.11
74573;BME280;63071;51.526;-0.134;2022-10-12T06:38:17;101788.16;;;23.75;32.07
74573;BME280;63071;51.526;-0.134;2022-10-12T06:40:42;101784.41;;;23.76;32.11
74573;BME280;63071;51.526;-0.134;2022-10-12T06:43:09;101775.16;;;23.74;32.20
74573;BME280;63071;51.526;-0.134;2022-10-12T06:45:35;101773.22;;;23.71;32.26
74573;BME280;63071;51.526;-0.134;2022-10-12T06:48:02;101784.84;;;23.78;32.13
74573;BME280;63071;51.526;-0.134;2022-10-12T06:50:28;101778.72;;;23.78;32.18
74573;BME280;63071;51.526;-0.134;2022-10-12T06:52:53;101767.59;;;23.76;32.19
74573;BME280;63071;51.526;-0.134;2022-10-12T06:55:19;101763.84;;;23.77;32.15
74573;BME280;63071;51.526;-0.134;2022-10-12T06:57:45;101766.59;;;23.81;32.08
74573;BME280;63071;51.526;-0.134;2022-10-12T07:00:12;101768.53;;;23.84;32.07
74573;BME280;63071;51.526;-0.134;2022-10-12T07:02:39;101772.34;;;23.83;32.26
74573;BME280;63071;51.526;-0.134;2022-10-12T07:05:05;101772.78;;;23.85;32.09
74573;BME280;63071;51.526;-0.134;2022-10-12T07:07:34;101777.41;;;23.88;32.26
74573;BME280;63071;51.526;-0.134;2022-10-12T07:10:01;101781.22;;;23.87;32.10
74573;BME280;63071;51.526;-0.134;2022-10-12T07:12:29;101775.50;;;23.88;32.26
74573;BME280;63071;51.526;-0.134;2022-10-12T07:14:54;101770.16;;;23.88;32.22
74573;BME280;63071;51.526;-0.134;2022-10-12T07:17:20;101771.78;;;23.93;32.07
74573;BME280;63071;51.526;-0.134;2022-10-12T07:19:45;101781.00;;;23.95;31.90
74573;BME280;63071;51.526;-0.134;2022-10-12T07:22:11;101766.47;;;23.93;31.86
74573;BME280;63071;51.526;-0.134;2022-10-12T07:24:36;101762.66;;;23.94;32.34
74573;BME280;63071;51.526;-0.134;2022-10-12T07:27:04;101767.66;;;23.95;32.04
74573;BME280;63071;51.526;-0.134;2022-10-12T07:29:31;101769.91;;;23.93;31.98
74573;BME280;63071;51.526;-0.134;2022-10-12T07:31:57;101772.91;;;23.92;32.00
74573;BME280;63071;51.526;-0.134;2022-10-12T07:34:24;101775.66;;;23.95;32.00
74573;BME280;63071;51.526;-0.134;2022-10-12T07:36:50;101768.72;;;23.91;32.15
74573;BME280;63071;51.526;-0.134;2022-10-12T07:39:16;101766.38;;;23.89;32.18
74573;BME280;63071;51.526;-0.134;2022-10-12T07:41:42;101772.47;;;23.90;32.33
74573;BME280;63071;51.526;-0.134;2022-10-12T07:44:07;101772.13;;;23.91;32.18
74573;BME280;63071;51.526;-0.134;2022-10-12T07:46:33;101767.13;;;23.90;32.16
74573;BME280;63071;51.526;-0.134;2022-10-12T07:48:58;101772.47;;;23.90;32.18
74573;BME280;63071;51.526;-0.134;2022-10-12T07:51:24;101767.13;;;23.90;32.21
74573;BME280;63071;51.526;-0.134;2022-10-12T07:53:49;101765.59;;;23.89;32.21
74573;BME280;63071;51.526;-0.134;2022-10-12T07:56:15;101758.28;;;23.86;32.28
74573;BME280;63071;51.526;-0.134;2022-10-12T07:58:52;101761.72;;;23.86;32.35
74573;BME280;63071;51.526;-0.134;2022-10-12T08:01:20;101761.38;;;23.88;32.41
74573;BME280;63071;51.526;-0.134;2022-10-12T08:03:47;101758.72;;;23.88;32.39
74573;BME280;63071;51.526;-0.134;2022-10-12T08:06:19;101753.38;;;23.88;32.41
74573;BME280;63071;51.526;-0.134;2022-10-12T08:08:45;101750.28;;;23.86;32.38
74573;BME280;63071;51.526;-0.134;2022-10-12T08:11:11;101753.38;;;23.88;32.42
74573;BME280;63071;51.526;-0.134;2022-10-12T08:13:37;101747.59;;;23.86;32.23
74573;BME280;63071;51.526;-0.134;2022-10-12T08:16:05;101745.34;;;23.88;32.37
74573;BME280;63071;51.526;-0.134;2022-10-12T08:18:31;101746.91;;;23.89;32.33
74573;BME280;63071;51.526;-0.134;2022-10-12T08:20:56;101744.25;;;23.89;32.35
74573;BME280;63071;51.526;-0.134;2022-10-12T08:23:22;101745.00;;;23.89;32.29
74573;BME280;63071;51.526;-0.134;2022-10-12T08:25:51;101743.47;;;23.88;32.35
74573;BME280;63071;51.526;-0.134;2022-10-12T08:28:17;101738.13;;;23.88;32.61
74573;BME280;63071;51.526;-0.134;2022-10-12T08:30:43;101734.00;;;23.91;32.18
74573;BME280;63071;51.526;-0.134;2022-10-12T08:33:08;101734.00;;;23.91;32.35
74573;BME280;63071;51.526;-0.134;2022-10-12T08:35:37;101735.88;;;23.90;32.23
74573;BME280;63071;51.526;-0.134;2022-10-12T08:38:03;101725.41;;;23.82;32.32
74573;BME280;63071;51.526;-0.134;2022-10-12T08:40:33;101741.94;;;23.87;32.29
74573;BME280;63071;51.526;-0.134;2022-10-12T08:46:02;101729.25;;;23.84;32.60
74573;BME280;63071;51.526;-0.134;2022-10-12T08:48:51;101722.38;;;23.83;32.43
74573;BME280;63071;51.526;-0.134;2022-10-12T08:51:23;101729.00;;;23.89;32.45
74573;BME280;63071;51.526;-0.134;2022-10-12T08:53:56;101732.09;;;23.91;32.33
74573;BME280;63071;51.526;-0.134;2022-10-12T08:56:23;101730.19;;;23.92;32.36
74573;BME280;63071;51.526;-0.134;2022-10-12T08:58:51;101733.28;;;23.94;32.40
74573;BME280;63071;51.526;-0.134;2022-10-12T09:07:22;101719.50;;;23.92;32.67
74573;BME280;63071;51.526;-0.134;2022-10-12T09:15:17;101727.72;;;24.03;32.13
74573;BME280;63071;51.526;-0.134;2022-10-12T09:17:55;101718.81;;;23.95;32.58
74573;BME280;63071;51.526;-0.134;2022-10-12T09:20:27;101724.94;;;24.15;32.28
74573;BME280;63071;51.526;-0.134;2022-10-12T09:25:41;101721.34;;;24.07;32.64
74573;BME280;63071;51.526;-0.134;2022-10-12T09:28:34;101717.84;;;24.03;32.51
74573;BME280;63071;51.526;-0.134;2022-10-12T09:34:00;101711.00;;;24.06;32.81
74573;BME280;63071;51.526;-0.134;2022-10-12T09:36:34;101715.00;;;24.15;32.67
74573;BME280;63071;51.526;-0.134;2022-10-12T09:39:03;101716.34;;;24.25;32.46
74573;BME280;63071;51.526;-0.134;2022-10-12T09:41:35;101721.88;;;24.16;32.51
74573;BME280;63071;51.526;-0.134;2022-10-12T09:44:04;101727.66;;;24.18;32.72
74573;BME280;63071;51.526;-0.134;2022-10-12T09:46:40;101720.34;;;24.15;32.57
74573;BME280;63071;51.526;-0.134;2022-10-12T09:49:07;101718.38;;;24.12;32.49
74573;BME280;63071;51.526;-0.134;2022-10-12T09:51:33;101730.63;;;24.13;32.80
74573;BME280;63071;51.526;-0.134;2022-10-12T09:54:01;101726.38;;;24.12;33.14
74573;BME280;63071;51.526;-0.134;2022-10-12T09:59:00;101725.34;;;24.17;32.88
74573;BME280;63071;51.526;-0.134;2022-10-12T10:01:28;101728.78;;;24.17;32.72
74573;BME280;63071;51.526;-0.134;2022-10-12T10:04:16;101732.41;;;24.29;33.19
74573;BME280;63071;51.526;-0.134;2022-10-12T10:06:46;101722.88;;;24.28;32.86
74573;BME280;63071;51.526;-0.134;2022-10-12T10:09:30;101730.59;;;24.33;33.14
74573;BME280;63071;51.526;-0.134;2022-10-12T10:12:12;101732.16;;;24.34;33.11
74573;BME280;63071;51.526;-0.134;2022-10-12T10:14:42;101728.91;;;24.25;33.40
74573;BME280;63071;51.526;-0.134;2022-10-12T10:17:16;101734.47;;;24.35;33.27
74573;BME280;63071;51.526;-0.134;2022-10-12T10:19:49;101739.81;;;24.35;33.37
74573;BME280;63071;51.526;-0.134;2022-10-12T10:22:16;101734.81;;;24.34;33.23
74573;BME280;63071;51.526;-0.134;2022-10-12T10:24:42;101729.47;;;24.34;33.68
74573;BME280;63071;51.526;-0.134;2022-10-12T10:27:35;101728.06;;;24.20;33.35
74573;BME280;63071;51.526;-0.134;2022-10-12T10:32:41;101725.88;;;24.26;33.54
74573;BME280;63071;51.526;-0.134;2022-10-12T10:37:44;101711.94;;;24.36;33.55
74573;BME280;63071;51.526;-0.134;2022-10-12T10:40:22;101719.00;;;24.25;33.43
74573;BME280;63071;51.526;-0.134;2022-10-12T10:42:52;101723.94;;;24.23;33.64
74573;BME280;63071;51.526;-0.134;2022-10-12T10:45:24;101734.75;;;24.30;33.76
74573;BME280;63071;51.526;-0.134;2022-10-12T10:47:52;101727.03;;;24.25;34.02
74573;BME280;63071;51.526;-0.134;2022-10-12T10:50:36;101718.38;;;24.32;33.53
74573;BME280;63071;51.526;-0.134;2022-10-12T10:53:12;101700.44;;;24.32;33.46
74573;BME280;63071;51.526;-0.134;2022-10-12T10:58:15;101697.28;;;24.27;33.84
74573;BME280;63071;51.526;-0.134;2022-10-12T11:00:46;101690.81;;;24.28;33.90
74573;BME280;63071;51.526;-0.134;2022-10-12T11:03:26;101671.13;;;24.16;34.52
74573;BME280;63071;51.526;-0.134;2022-10-12T11:05:58;101667.03;;;24.23;34.46
74573;BME280;63071;51.526;-0.134;2022-10-12T11:08:34;101658.19;;;24.18;34.37
74573;BME280;63071;51.526;-0.134;2022-10-12T11:11:19;101647.25;;;24.24;34.27
74573;BME280;63071;51.526;-0.134;2022-10-12T11:13:57;101647.94;;;24.20;34.47
74573;BME280;63071;51.526;-0.134;2022-10-12T11:16:35;101654.47;;;24.23;34.52
74573;BME280;63071;51.526;-0.134;2022-10-12T11:21:43;101637.38;;;24.28;34.36
74573;BME280;63071;51.526;-0.134;2022-10-12T11:24:18;101629.19;;;24.40;34.19
74573;BME280;63071;51.526;-0.134;2022-10-12T11:26:51;101615.50;;;24.45;34.48
74573;BME280;63071;51.526;-0.134;2022-10-12T11:29:18;101613.75;;;24.53;34.33
74573;BME280;63071;51.526;-0.134;2022-10-12T11:32:05;101610.03;;;24.57;33.83
74573;BME280;63071;51.526;-0.134;2022-10-12T11:34:50;101625.00;;;24.62;34.22
74573;BME280;63071;51.526;-0.134;2022-10-12T11:37:22;101625.47;;;24.68;33.98
74573;BME280;63071;51.526;-0.134;2022-10-12T11:39:51;101623.66;;;24.75;34.16
74573;BME280;63071;51.526;-0.134;2022-10-12T11:42:30;101616.09;;;24.81;34.33
74573;BME280;63071;51.526;-0.134;2022-10-12T11:44:59;101623.09;;;24.89;33.74
74573;BME280;63071;51.526;-0.134;2022-10-12T11:49:56;101628.28;;;25.05;33.29
74573;BME280;63071;51.526;-0.134;2022-10-12T11:52:24;101630.81;;;24.94;34.00
74573;BME280;63071;51.526;-0.134;2022-10-12T11:57:29;101633.31;;;24.84;34.05
74573;BME280;63071;51.526;-0.134;2022-10-12T12:00:03;101630.63;;;24.80;34.22
74573;BME280;63071;51.526;-0.134;2022-10-12T12:02:39;101633.44;;;24.91;34.31
74573;BME280;63071;51.526;-0.134;2022-10-12T12:05:12;101628.38;;;24.86;34.32
74573;BME280;63071;51.526;-0.134;2022-10-12T12:07:50;101621.91;;;24.87;34.47
74573;BME280;63071;51.526;-0.134;2022-10-12T12:15:36;101612.41;;;24.89;34.27
74573;BME280;63071;51.526;-0.134;2022-10-12T12:18:16;101613.47;;;24.85;34.07
74573;BME280;63071;51.526;-0.134;2022-10-12T12:23:23;101602.25;;;24.75;33.98
74573;BME280;63071;51.526;-0.134;2022-10-12T12:26:14;101597.53;;;24.92;34.05
74573;BME280;63071;51.526;-0.134;2022-10-12T12:28:48;101586.81;;;24.92;34.23
74573;BME280;63071;51.526;-0.134;2022-10-12T12:31:25;101586.28;;;24.79;34.31
74573;BME280;63071;51.526;-0.134;2022-10-12T12:34:14;101582.50;;;24.80;34.49
74573;BME280;63071;51.526;-0.134;2022-10-12T12:36:42;101569.59;;;24.89;33.94
74573;BME280;63071;51.526;-0.134;2022-10-12T12:39:32;101567.25;;;24.84;34.12
74573;BME280;63071;51.526;-0.134;2022-10-12T12:42:02;101564.84;;;24.75;34.41
74573;BME280;63071;51.526;-0.134;2022-10-12T12:52:02;101560.38;;;24.83;34.29
74573;BME280;63071;51.526;-0.134;2022-10-12T12:54:28;101554.66;;;24.85;34.74
74573;BME280;63071;51.526;-0.134;2022-10-12T12:57:14;101544.31;;;24.83;34.38
74573;BME280;63071;51.526;-0.134;2022-10-12T13:00:11;101536.63;;;24.78;34.64
74573;BME280;63071;51.526;-0.134;2022-10-12T13:11:18;101533.34;;;24.62;34.48
74573;BME280;63071;51.526;-0.134;2022-10-12T13:19:14;101527.78;;;24.74;34.26
74573;BME280;63071;51.526;-0.134;2022-10-12T13:21:44;101516.69;;;24.72;34.74
74573;BME280;63071;51.526;-0.134;2022-10-12T13:24:20;101526.75;;;24.82;34.49
74573;BME280;63071;51.526;-0.134;2022-10-12T13:26:50;101529.03;;;24.84;34.49
74573;BME280;63071;51.526;-0.134;2022-10-12T13:29:34;101519.53;;;24.86;34.44
74573;BME280;63071;51.526;-0.134;2022-10-12T13:32:09;101522.53;;;24.81;34.83
74573;BME280;63071;51.526;-0.134;2022-10-12T13:34:44;101527.41;;;24.75;35.11
74573;BME280;63071;51.526;-0.134;2022-10-12T13:37:13;101526.75;;;24.82;34.85
74573;BME280;63071;51.526;-0.134;2022-10-12T13:39:42;101518.00;;;24.85;34.44
74573;BME280;63071;51.526;-0.134;2022-10-12T13:42:16;101514.91;;;24.83;34.72
74573;BME280;63071;51.526;-0.134;2022-10-12T13:44:47;101507.63;;;24.80;34.69
74573;BME280;63071;51.526;-0.134;2022-10-12T13:47:40;101504.56;;;24.82;35.18
74573;BME280;63071;51.526;-0.134;2022-10-12T13:50:17;101503.84;;;24.85;34.68
74573;BME280;63071;51.526;-0.134;2022-10-12T13:52:51;101494.75;;;24.89;34.98
74573;BME280;63071;51.526;-0.134;2022-10-12T13:55:23;101485.66;;;24.97;34.48
74573;BME280;63071;51.526;-0.134;2022-10-12T13:57:49;101493.78;;;25.05;34.37
74573;BME280;63071;51.526;-0.134;2022-10-12T14:00:17;101493.44;;;25.06;34.04
74573;BME280;63071;51.526;-0.134;2022-10-12T14:03:00;101497.47;;;24.93;34.23
74573;BME280;63071;51.526;-0.134;2022-10-12T14:05:29;101486.47;;;24.98;33.92
74573;BME280;63071;51.526;-0.134;2022-10-12T14:08:01;101486.81;;;24.96;34.28
74573;BME280;63071;51.526;-0.134;2022-10-12T14:10:35;101492.94;;;24.97;34.47
74573;BME280;63071;51.526;-0.134;2022-10-12T14:13:02;101488.03;;;25.03;33.79
74573;BME280;63071;51.526;-0.134;2022-10-12T14:15:36;101489.84;;;24.95;34.56
74573;BME280;63071;51.526;-0.134;2022-10-12T14:18:03;101489.34;;;24.86;34.63
74573;BME280;63071;51.526;-0.134;2022-10-12T14:20:34;101477.97;;;24.92;34.03
74573;BME280;63071;51.526;-0.134;2022-10-12T14:23:09;101474.03;;;24.83;34.50
74573;BME280;63071;51.526;-0.134;2022-10-12T14:25:37;101488.56;;;24.85;34.37